Littlefield, Texas
Current Conditions -  °F | °C
As of 1:53 PM on Sunday 25 Jan 2015 (Local Time) from KLBB Reporting Station
Few Clouds Few Clouds  
Wind Chill: 59°   Ceiling: Unl
Heat Index: 59°   Visibility: 10mi
Dew Point: 28°   Wind: 13mph
Humidity: 31%   Direction: 350°N
Pressure: 30.21"   Gusts: 23mph
Location:  33.92°N, 102.33°W
Report Text: KLBB 251953Z 35011G20KT 10SM FEW270 15/M02 A3021 RMK AO2 SLP215 T01501022
Loading
Personal Weather Stations






























Interactive Weather Map New forecast layout! Learn more

10-Day Weather Forecast

Advertisements
Track Severe Weather on mobile